Главная страница
METAR-TAF:

METAR-TAF

Аэропорты :

Qaisumah, Саудовская Аравия

широта: 28-19N, долгота: 046-07E, высота над уровнем моря: 358 м

Текущие метеонаблюдения

Эта сводка был подготовлена 49 минут назад, в 07:00 UTC
Ветер 10 Узел от северо-северо-восточный
Температура 38°C
Влажность 10%
Давление 1008 hPa
Видимость 10 км и более
Нет облачности ниже 1500 м, и нет кучево-дождевой облачности

METAR: OEPA 220700Z 03010KT CAVOK 38/01 Q1008 NOSIG

Время: 10:49 (07:49 UTC)

Прогноз

Эта сводка был подготовлена 9 часа и 49 минут назад, в 22:00 UTC
Прогноз действительный с 22-го 00 UTC до 23-го 06 UTC
Ветер 5 Узел от северно-северо-западный
Видимость 10 км и более
Нет облачности ниже 1500 м, и нет кучево-дождевой облачности
изменения
С 22-го 04 UTC до 22-го 06 UTC
Ветер 10 Узел от западный

TAF: OEPA 212200Z 2200/2306 34005KT CAVOK BECMG 2204/2206 28010KT

Метеонаблюдения и прогнозы для более 4000 аэропортов (сводки METAR и TAF).

Имеющиеся станции представлены на карте желтыми и красными точками.

Чтобы увидеть название станции, наведите на нее мышь.

Затем щелкните, чтобы увидеть метеонаблюдения и метеопрогнозы.

Управление картой: чтобы увеличить масштаб, щелкните зеленые кнопки с черным крестиком; чтобы уменьшить масштаб, щелкните зеленую кнопку с тире; для просмотра соседних карт щелкайте зеленые стрелки.


METAR-TAF: